Time;durP1;ratioP1;P1;durP2;ratioP2;P2;SDS_P1;SDS_P2;PMS_P1;PMS_P2;Temp;Humidity;BMP_temperature;BMP_pressure;BME280_temperature;BME280_humidity;BME280_pressure;Samples;Min_cycle;Max_cycle;Signal;HPM_P1;HPM_P2
2023/12/24 00:01:00;;;;;;;2.05;1.00;;;;;;;;;;4963217;28;20033;-70
2023/12/24 00:03:25;;;;;;;1.58;1.00;;;;;;;;;;4966386;28;20109;-71
2023/12/24 00:05:53;;;;;;;3.55;1.00;;;;;;;;;;4965939;28;20030;-72
2023/12/24 00:08:19;;;;;;;2.45;1.35;;;;;;;;;;4966984;28;20506;-72
2023/12/24 00:10:45;;;;;;;1.55;0.95;;;;;;;;;;4964034;28;20668;-70
2023/12/24 00:13:10;;;;;;;2.10;0.80;;;;;;;;;;4965836;28;20149;-71
2023/12/24 00:15:35;;;;;;;4.18;1.38;;;;;;;;;;4965119;28;20025;-70
2023/12/24 00:18:00;;;;;;;1.83;1.00;;;;;;;;;;4965562;28;20015;-71
2023/12/24 00:20:25;;;;;;;1.08;0.88;;;;;;;;;;4960743;28;20034;-70
2023/12/24 00:23:04;;;;;;;2.25;1.35;;;;;;;;;;4964195;28;20038;-71
2023/12/24 00:25:29;;;;;;;2.83;1.17;;;;;;;;;;4964011;28;20019;-70
2023/12/24 00:27:55;;;;;;;1.58;1.05;;;;;;;;;;4963956;28;20029;-71
2023/12/24 00:30:20;;;;;;;2.60;1.42;;;;;;;;;;4964452;28;20121;-71
2023/12/24 00:32:45;;;;;;;2.75;1.23;;;;;;;;;;4965405;28;21251;-72
2023/12/24 00:35:10;;;;;;;2.40;0.95;;;;;;;;;;4965250;28;21483;-71
2023/12/24 00:37:36;;;;;;;1.42;1.05;;;;;;;;;;4964911;28;20050;-69
2023/12/24 00:40:01;;;;;;;2.35;1.23;;;;;;;;;;4962259;28;20043;-71
2023/12/24 00:42:26;;;;;;;6.05;1.15;;;;;;;;;;4966147;28;20046;-72
2023/12/24 00:44:52;;;;;;;2.20;1.00;;;;;;;;;;4966532;28;20133;-70
2023/12/24 00:47:17;;;;;;;4.50;1.20;;;;;;;;;;4966292;28;20046;-70
2023/12/24 00:49:42;;;;;;;2.72;1.20;;;;;;;;;;4964028;28;20031;-71
2023/12/24 00:52:08;;;;;;;4.55;1.27;;;;;;;;;;4964279;28;20360;-71
2023/12/24 00:54:33;;;;;;;2.50;1.17;;;;;;;;;;4965090;28;20012;-70
2023/12/24 00:56:59;;;;;;;6.47;1.33;;;;;;;;;;4964764;28;20177;-71
2023/12/24 00:59:24;;;;;;;1.67;1.08;;;;;;;;;;4983037;23;20181;-67
2023/12/24 01:01:50;;;;;;;3.78;1.10;;;;;;;;;;4964100;28;20037;-68
2023/12/24 01:04:15;;;;;;;1.92;1.00;;;;;;;;;;4963863;28;20403;-69
2023/12/24 01:06:40;;;;;;;2.20;0.98;;;;;;;;;;4961556;28;20023;-66
2023/12/24 01:09:05;;;;;;;1.90;1.08;;;;;;;;;;4965503;28;20030;-68
2023/12/24 01:11:31;;;;;;;3.83;1.10;;;;;;;;;;4963653;28;20015;-68
2023/12/24 01:13:56;;;;;;;2.15;1.20;;;;;;;;;;4965186;28;20395;-68
2023/12/24 01:16:21;;;;;;;1.50;0.85;;;;;;;;;;4965378;28;20026;-68
2023/12/24 01:18:47;;;;;;;5.65;1.35;;;;;;;;;;4964958;28;20065;-69
2023/12/24 01:21:12;;;;;;;1.70;0.90;;;;;;;;;;4963450;28;20026;-69
2023/12/24 01:23:38;;;;;;;2.35;1.27;;;;;;;;;;4964736;28;20390;-68
2023/12/24 01:26:03;;;;;;;1.80;1.00;;;;;;;;;;4964199;28;20069;-69
2023/12/24 01:28:28;;;;;;;1.70;1.05;;;;;;;;;;4964884;28;20015;-68
2023/12/24 01:30:54;;;;;;;1.00;0.82;;;;;;;;;;4963793;28;20018;-68
2023/12/24 01:33:20;;;;;;;1.70;1.25;;;;;;;;;;4964483;28;20031;-68
2023/12/24 01:35:47;;;;;;;1.92;1.13;;;;;;;;;;4964701;28;21187;-67
2023/12/24 01:38:12;;;;;;;3.25;1.13;;;;;;;;;;4963288;28;20033;-66
2023/12/24 01:40:37;;;;;;;6.35;1.40;;;;;;;;;;4960610;28;20438;-67
2023/12/24 01:43:02;;;;;;;4.10;0.95;;;;;;;;;;4962422;28;20089;-70
2023/12/24 01:45:28;;;;;;;5.75;1.30;;;;;;;;;;4963484;28;20072;-67
2023/12/24 01:47:53;;;;;;;2.55;1.15;;;;;;;;;;4965061;28;20034;-66
2023/12/24 01:50:18;;;;;;;2.20;1.30;;;;;;;;;;4965331;28;20102;-69
2023/12/24 01:52:43;;;;;;;1.85;1.20;;;;;;;;;;4962660;28;20509;-69
2023/12/24 01:55:09;;;;;;;2.72;1.20;;;;;;;;;;4971164;28;20011;-67
2023/12/24 01:57:35;;;;;;;2.00;1.10;;;;;;;;;;4970580;28;20038;-69
2023/12/24 02:00:00;;;;;;;2.17;1.10;;;;;;;;;;4968288;28;20154;-68
2023/12/24 02:02:26;;;;;;;4.68;1.45;;;;;;;;;;4967642;28;20097;-68
2023/12/24 02:04:51;;;;;;;1.60;1.17;;;;;;;;;;4966443;28;20038;-69
2023/12/24 02:07:17;;;;;;;1.80;1.02;;;;;;;;;;4970815;28;20025;-68
2023/12/24 02:09:43;;;;;;;1.95;1.15;;;;;;;;;;4964036;28;20023;-68
2023/12/24 02:12:08;;;;;;;2.28;1.05;;;;;;;;;;4970519;28;20475;-66
2023/12/24 02:14:33;;;;;;;3.00;0.80;;;;;;;;;;4970682;28;20015;-66
2023/12/24 02:16:59;;;;;;;2.88;1.13;;;;;;;;;;4966960;28;20675;-67
2023/12/24 02:19:25;;;;;;;14.70;1.65;;;;;;;;;;4971743;28;20041;-68
2023/12/24 02:21:50;;;;;;;3.22;1.10;;;;;;;;;;4971683;28;20054;-66
2023/12/24 02:24:16;;;;;;;2.17;1.00;;;;;;;;;;4971459;28;20015;-70
2023/12/24 02:26:53;;;;;;;4.22;1.00;;;;;;;;;;4971043;28;20014;-68
2023/12/24 02:29:31;;;;;;;1.10;0.90;;;;;;;;;;4966106;28;20031;-67
2023/12/24 02:32:00;;;;;;;5.82;1.00;;;;;;;;;;4985357;28;20038;-69
2023/12/24 02:34:26;;;;;;;2.78;0.93;;;;;;;;;;4970384;28;20006;-69
2023/12/24 02:36:52;;;;;;;1.88;0.98;;;;;;;;;;4970241;28;20089;-68
2023/12/24 02:39:17;;;;;;;1.77;1.00;;;;;;;;;;4970229;28;20019;-69
2023/12/24 02:41:42;;;;;;;1.08;0.80;;;;;;;;;;4970623;28;20205;-69
2023/12/24 02:44:08;;;;;;;1.05;0.80;;;;;;;;;;4970283;28;20041;-69
2023/12/24 02:46:33;;;;;;;1.60;0.90;;;;;;;;;;4973880;28;20045;-69
2023/12/24 02:48:59;;;;;;;1.15;0.90;;;;;;;;;;4971246;28;20482;-69
2023/12/24 02:51:24;;;;;;;1.35;0.85;;;;;;;;;;4970551;28;20018;-69
2023/12/24 02:53:50;;;;;;;1.20;0.93;;;;;;;;;;4968676;28;20027;-69
2023/12/24 02:56:15;;;;;;;2.50;0.90;;;;;;;;;;4970380;28;20057;-69
2023/12/24 02:58:43;;;;;;;1.33;0.82;;;;;;;;;;4970205;28;20426;-68
2023/12/24 03:01:08;;;;;;;0.98;0.73;;;;;;;;;;4970313;28;20011;-69
2023/12/24 03:03:34;;;;;;;2.90;0.90;;;;;;;;;;4970129;28;20029;-68
2023/12/24 03:05:59;;;;;;;1.13;0.70;;;;;;;;;;4969496;28;20018;-68
2023/12/24 03:08:24;;;;;;;2.30;1.05;;;;;;;;;;4972432;28;20054;-69
2023/12/24 03:10:49;;;;;;;1.83;0.82;;;;;;;;;;4970566;28;20089;-66
2023/12/24 03:13:14;;;;;;;3.33;1.13;;;;;;;;;;4969376;28;20058;-68
2023/12/24 03:15:40;;;;;;;3.05;1.10;;;;;;;;;;4972368;28;20112;-68
2023/12/24 03:18:05;;;;;;;5.35;1.05;;;;;;;;;;4969927;28;20145;-68
2023/12/24 03:20:30;;;;;;;3.45;0.95;;;;;;;;;;4970383;28;20031;-68
2023/12/24 03:22:55;;;;;;;2.45;0.90;;;;;;;;;;4970074;28;20022;-68
2023/12/24 03:25:21;;;;;;;3.78;0.93;;;;;;;;;;4970344;28;20025;-69
2023/12/24 03:27:46;;;;;;;3.30;0.98;;;;;;;;;;4969759;28;20010;-68
2023/12/24 03:30:11;;;;;;;0.90;0.80;;;;;;;;;;4969911;28;20021;-68
2023/12/24 03:32:36;;;;;;;1.02;0.75;;;;;;;;;;4969951;28;20018;-67
2023/12/24 03:35:03;;;;;;;3.42;1.17;;;;;;;;;;4969890;28;20015;-67
2023/12/24 03:37:28;;;;;;;4.70;1.13;;;;;;;;;;4970122;28;20007;-69
2023/12/24 03:39:53;;;;;;;3.67;1.00;;;;;;;;;;4970498;28;20019;-69
2023/12/24 03:42:18;;;;;;;5.10;0.93;;;;;;;;;;4970269;28;20015;-69
2023/12/24 03:44:44;;;;;;;1.92;1.00;;;;;;;;;;4970266;28;20034;-68
2023/12/24 03:47:09;;;;;;;5.82;1.38;;;;;;;;;;4974221;28;20014;-69
2023/12/24 03:49:34;;;;;;;5.63;0.93;;;;;;;;;;4970112;28;20011;-68
2023/12/24 03:51:59;;;;;;;4.85;1.00;;;;;;;;;;4970212;28;20026;-66
2023/12/24 03:54:24;;;;;;;4.07;1.27;;;;;;;;;;4970482;28;20022;-68
2023/12/24 03:56:50;;;;;;;7.95;1.17;;;;;;;;;;4969787;28;20504;-69
2023/12/24 03:59:16;;;;;;;1.73;0.90;;;;;;;;;;4970056;28;20577;-68
2023/12/24 04:01:41;;;;;;;4.10;0.98;;;;;;;;;;4969781;28;20026;-69
2023/12/24 04:04:07;;;;;;;2.42;1.15;;;;;;;;;;4962540;28;20094;-69
2023/12/24 04:06:32;;;;;;;5.18;1.48;;;;;;;;;;4975020;28;20377;-67
2023/12/24 04:08:57;;;;;;;5.65;1.25;;;;;;;;;;4973515;28;20128;-67
2023/12/24 04:11:24;;;;;;;3.22;1.30;;;;;;;;;;4973701;28;20367;-69
2023/12/24 04:13:49;;;;;;;5.68;1.45;;;;;;;;;;4973832;28;20064;-68
2023/12/24 04:16:15;;;;;;;3.65;1.10;;;;;;;;;;4973174;28;20471;-68
2023/12/24 04:18:40;;;;;;;4.40;1.05;;;;;;;;;;4973375;28;20011;-68
2023/12/24 04:21:05;;;;;;;3.65;1.08;;;;;;;;;;4973012;28;20741;-67
2023/12/24 04:23:30;;;;;;;4.32;1.05;;;;;;;;;;4988226;28;20011;-69
2023/12/24 04:25:56;;;;;;;0.90;0.75;;;;;;;;;;4972866;28;20051;-68
2023/12/24 04:28:21;;;;;;;1.75;1.00;;;;;;;;;;4988179;28;20050;-69
2023/12/24 04:30:46;;;;;;;4.00;1.10;;;;;;;;;;4972640;28;20028;-70
2023/12/24 04:33:11;;;;;;;2.53;0.90;;;;;;;;;;4972629;28;20026;-69
2023/12/24 04:35:37;;;;;;;3.45;1.27;;;;;;;;;;4973237;28;20022;-67
2023/12/24 04:38:02;;;;;;;3.70;0.80;;;;;;;;;;4972725;28;20023;-68
2023/12/24 04:40:27;;;;;;;2.58;1.10;;;;;;;;;;4973281;28;20054;-66
2023/12/24 04:42:53;;;;;;;3.22;1.15;;;;;;;;;;4972907;28;20030;-67
2023/12/24 04:45:18;;;;;;;4.53;1.10;;;;;;;;;;4971741;28;20022;-68
2023/12/24 04:47:43;;;;;;;2.50;1.00;;;;;;;;;;4976587;28;20019;-68
2023/12/24 04:50:08;;;;;;;1.95;0.82;;;;;;;;;;4972681;28;20022;-69
2023/12/24 04:52:35;;;;;;;1.55;0.73;;;;;;;;;;4971859;28;20010;-68
2023/12/24 04:55:04;;;;;;;0.65;0.63;;;;;;;;;;4972627;28;20021;-69
2023/12/24 04:57:29;;;;;;;2.30;1.00;;;;;;;;;;4972288;28;20015;-67
2023/12/24 04:59:54;;;;;;;1.90;0.80;;;;;;;;;;4971995;28;20039;-68
2023/12/24 05:02:20;;;;;;;6.68;0.90;;;;;;;;;;4972490;28;20030;-69
2023/12/24 05:04:45;;;;;;;1.70;0.80;;;;;;;;;;4972446;28;20018;-69
2023/12/24 05:07:10;;;;;;;2.70;1.02;;;;;;;;;;4974270;28;20014;-67
2023/12/24 05:09:35;;;;;;;1.42;0.80;;;;;;;;;;4973325;28;20015;-69
2023/12/24 05:12:00;;;;;;;3.97;0.90;;;;;;;;;;4973862;28;20022;-69
2023/12/24 05:14:26;;;;;;;2.42;0.85;;;;;;;;;;4973408;28;20019;-68
2023/12/24 05:16:51;;;;;;;4.72;0.85;;;;;;;;;;4970857;28;20023;-69
2023/12/24 05:19:16;;;;;;;2.47;0.88;;;;;;;;;;4972753;28;20089;-69
2023/12/24 05:21:41;;;;;;;5.28;1.20;;;;;;;;;;4972297;28;20061;-69
2023/12/24 05:24:06;;;;;;;4.78;1.90;;;;;;;;;;4972438;28;20479;-69
2023/12/24 05:26:32;;;;;;;2.40;0.70;;;;;;;;;;4972500;28;20378;-67
2023/12/24 05:28:57;;;;;;;0.60;0.50;;;;;;;;;;4974438;28;20045;-68
2023/12/24 05:31:22;;;;;;;2.15;0.80;;;;;;;;;;4972016;28;20366;-66
2023/12/24 05:33:47;;;;;;;4.97;1.25;;;;;;;;;;4972168;28;20017;-68
2023/12/24 05:36:13;;;;;;;6.88;0.68;;;;;;;;;;4972234;28;20022;-68
2023/12/24 05:38:39;;;;;;;0.95;0.60;;;;;;;;;;4971530;28;20019;-69
2023/12/24 05:41:07;;;;;;;2.45;0.60;;;;;;;;;;4971922;28;20022;-71
2023/12/24 05:43:32;;;;;;;1.00;0.60;;;;;;;;;;4971934;28;20022;-69
2023/12/24 05:45:57;;;;;;;2.80;0.70;;;;;;;;;;4971366;28;20029;-69
2023/12/24 05:48:22;;;;;;;0.63;0.50;;;;;;;;;;4975835;28;20105;-69
2023/12/24 05:50:48;;;;;;;1.23;0.50;;;;;;;;;;4971500;28;20405;-69
2023/12/24 05:53:13;;;;;;;0.77;0.40;;;;;;;;;;4971477;28;20037;-69
2023/12/24 05:55:38;;;;;;;0.95;0.60;;;;;;;;;;4971306;28;20022;-69
2023/12/24 05:58:03;;;;;;;1.75;0.40;;;;;;;;;;4971211;28;20072;-68
2023/12/24 06:00:28;;;;;;;0.30;0.30;;;;;;;;;;4970879;28;20074;-69
2023/12/24 06:02:54;;;;;;;1.27;0.50;;;;;;;;;;4970990;28;20022;-68
2023/12/24 06:05:19;;;;;;;4.28;0.60;;;;;;;;;;4971461;28;20010;-69
2023/12/24 06:07:44;;;;;;;0.32;0.32;;;;;;;;;;4972844;28;20010;-69
2023/12/24 06:10:09;;;;;;;3.22;0.40;;;;;;;;;;4971141;28;20102;-68
2023/12/24 06:12:36;;;;;;;1.10;0.50;;;;;;;;;;4971424;28;20069;-68
2023/12/24 06:15:01;;;;;;;0.90;0.45;;;;;;;;;;4971195;28;20018;-67
2023/12/24 06:17:27;;;;;;;0.63;0.50;;;;;;;;;;4970680;28;20083;-68
2023/12/24 06:19:52;;;;;;;0.32;0.32;;;;;;;;;;4971121;28;20023;-68
2023/12/24 06:22:17;;;;;;;1.92;0.40;;;;;;;;;;4970910;28;20019;-68
2023/12/24 06:24:43;;;;;;;0.45;0.45;;;;;;;;;;4970790;28;20015;-68
2023/12/24 06:27:09;;;;;;;1.55;0.50;;;;;;;;;;4970912;28;20668;-68
2023/12/24 06:29:36;;;;;;;0.50;0.50;;;;;;;;;;4970463;28;20031;-67
2023/12/24 06:32:01;;;;;;;0.50;0.30;;;;;;;;;;4970711;28;20029;-68
2023/12/24 06:34:26;;;;;;;0.82;0.40;;;;;;;;;;4971049;28;20422;-69
2023/12/24 06:36:51;;;;;;;0.40;0.30;;;;;;;;;;4971728;28;20461;-69
2023/12/24 06:39:17;;;;;;;0.30;0.30;;;;;;;;;;4970953;28;20459;-68
2023/12/24 06:41:45;;;;;;;0.82;0.50;;;;;;;;;;4971830;28;20019;-68
2023/12/24 06:44:10;;;;;;;0.60;0.38;;;;;;;;;;4971792;28;20031;-68
2023/12/24 06:46:36;;;;;;;0.50;0.28;;;;;;;;;;4973722;28;20018;-68
2023/12/24 06:49:01;;;;;;;0.20;0.20;;;;;;;;;;4971570;28;20077;-69
2023/12/24 06:51:26;;;;;;;0.30;0.30;;;;;;;;;;4971108;28;20018;-68
2023/12/24 06:53:51;;;;;;;0.63;0.60;;;;;;;;;;4970523;28;20022;-69
2023/12/24 06:56:16;;;;;;;1.92;0.40;;;;;;;;;;4971311;28;20014;-66
2023/12/24 06:58:41;;;;;;;0.30;0.30;;;;;;;;;;4971312;28;20426;-67
2023/12/24 07:01:07;;;;;;;1.92;0.80;;;;;;;;;;4970521;28;20439;-67
2023/12/24 07:03:32;;;;;;;1.55;0.65;;;;;;;;;;4971504;28;20427;-68
2023/12/24 07:05:58;;;;;;;1.08;0.60;;;;;;;;;;4971475;28;20019;-68
2023/12/24 07:08:23;;;;;;;1.67;0.80;;;;;;;;;;4974080;28;20026;-68
2023/12/24 07:10:48;;;;;;;1.95;0.60;;;;;;;;;;4966714;28;20022;-69
2023/12/24 07:13:14;;;;;;;0.30;0.30;;;;;;;;;;4970745;28;20378;-66
2023/12/24 07:15:45;;;;;;;0.43;0.30;;;;;;;;;;4970711;28;20011;-68
2023/12/24 07:18:11;;;;;;;1.58;0.50;;;;;;;;;;4972958;28;20030;-67
2023/12/24 07:20:36;;;;;;;0.75;0.50;;;;;;;;;;4975774;28;20038;-66
2023/12/24 07:23:02;;;;;;;1.15;0.47;;;;;;;;;;4970237;28;20026;-67
2023/12/24 07:25:27;;;;;;;0.30;0.30;;;;;;;;;;4968941;28;20379;-69
2023/12/24 07:27:52;;;;;;;0.47;0.47;;;;;;;;;;4966960;28;20050;-66
2023/12/24 07:30:17;;;;;;;0.40;0.40;;;;;;;;;;4970540;28;20093;-66
2023/12/24 07:32:43;;;;;;;0.60;0.60;;;;;;;;;;4971343;28;20018;-67
2023/12/24 07:35:08;;;;;;;0.45;0.40;;;;;;;;;;4969537;28;20066;-66
2023/12/24 07:37:34;;;;;;;0.40;0.40;;;;;;;;;;4970062;28;20482;-67
2023/12/24 07:39:59;;;;;;;0.40;0.40;;;;;;;;;;4970831;28;20471;-66
2023/12/24 07:42:24;;;;;;;1.38;0.50;;;;;;;;;;4988837;28;20068;-67
2023/12/24 07:44:51;;;;;;;1.00;0.60;;;;;;;;;;4971417;28;20030;-68
2023/12/24 07:47:16;;;;;;;1.38;0.55;;;;;;;;;;4973769;28;20027;-65
2023/12/24 07:49:41;;;;;;;0.93;0.50;;;;;;;;;;4988539;28;20089;-66
2023/12/24 07:52:06;;;;;;;4.93;0.70;;;;;;;;;;4973466;28;20046;-67
2023/12/24 07:54:32;;;;;;;0.45;0.40;;;;;;;;;;4973231;28;20007;-67
2023/12/24 07:56:57;;;;;;;2.03;0.63;;;;;;;;;;4966179;28;20098;-66
2023/12/24 07:59:22;;;;;;;0.95;0.38;;;;;;;;;;4968694;28;20081;-68
2023/12/24 08:01:47;;;;;;;0.98;0.57;;;;;;;;;;4971259;28;20029;-68
2023/12/24 08:04:12;;;;;;;1.42;0.90;;;;;;;;;;4966860;28;20014;-68
2023/12/24 08:06:38;;;;;;;4.93;1.55;;;;;;;;;;4974810;28;20470;-67
2023/12/24 08:09:03;;;;;;;3.25;1.20;;;;;;;;;;4972066;28;20041;-68
2023/12/24 08:11:29;;;;;;;1.15;0.60;;;;;;;;;;4964221;28;20100;-69
2023/12/24 08:13:54;;;;;;;2.13;0.68;;;;;;;;;;4959879;28;20037;-66
2023/12/24 08:16:19;;;;;;;0.40;0.40;;;;;;;;;;4966670;28;20077;-68
2023/12/24 08:18:45;;;;;;;1.58;0.43;;;;;;;;;;4968424;28;20031;-69
2023/12/24 08:21:10;;;;;;;1.08;0.45;;;;;;;;;;4969342;28;20018;-69
2023/12/24 08:23:38;;;;;;;3.10;0.50;;;;;;;;;;4971008;28;20021;-66
2023/12/24 08:26:04;;;;;;;0.65;0.50;;;;;;;;;;4969492;28;20030;-69
2023/12/24 08:28:29;;;;;;;0.40;0.40;;;;;;;;;;4968565;28;20026;-67
2023/12/24 08:30:54;;;;;;;0.80;0.60;;;;;;;;;;4971114;28;20026;-67
2023/12/24 08:33:19;;;;;;;0.65;0.43;;;;;;;;;;4970552;28;20030;-68
2023/12/24 08:35:45;;;;;;;1.63;0.50;;;;;;;;;;4972241;28;20069;-67
2023/12/24 08:38:10;;;;;;;0.45;0.40;;;;;;;;;;4972285;28;20013;-68
2023/12/24 08:40:35;;;;;;;4.90;0.93;;;;;;;;;;4972391;28;20022;-65
2023/12/24 08:43:00;;;;;;;0.77;0.40;;;;;;;;;;4971095;28;21250;-67
2023/12/24 08:45:26;;;;;;;0.40;0.40;;;;;;;;;;4972129;28;20435;-70
2023/12/24 08:47:51;;;;;;;2.25;0.60;;;;;;;;;;4975431;28;20081;-69
2023/12/24 08:50:16;;;;;;;1.58;0.70;;;;;;;;;;4972399;28;20096;-69
2023/12/24 08:52:41;;;;;;;1.77;0.80;;;;;;;;;;4967402;28;20430;-68
2023/12/24 08:55:07;;;;;;;2.30;0.55;;;;;;;;;;4971181;28;20178;-67
2023/12/24 08:57:32;;;;;;;0.90;0.73;;;;;;;;;;4971965;28;20149;-68
2023/12/24 08:59:57;;;;;;;2.05;0.90;;;;;;;;;;4971116;28;20046;-68
2023/12/24 09:02:22;;;;;;;0.40;0.40;;;;;;;;;;4971367;28;20025;-69
2023/12/24 09:04:48;;;;;;;2.22;0.50;;;;;;;;;;4971815;28;20016;-69
2023/12/24 09:07:13;;;;;;;1.27;0.57;;;;;;;;;;4969877;28;20105;-70
2023/12/24 09:09:38;;;;;;;0.85;0.60;;;;;;;;;;4972198;28;20047;-69
2023/12/24 09:12:04;;;;;;;0.88;0.40;;;;;;;;;;4971558;28;20027;-69
2023/12/24 09:14:29;;;;;;;1.45;0.45;;;;;;;;;;4971355;28;20014;-69
2023/12/24 09:16:55;;;;;;;0.70;0.50;;;;;;;;;;4971391;28;20036;-69
2023/12/24 09:19:20;;;;;;;0.90;0.47;;;;;;;;;;4971873;28;20395;-69
2023/12/24 09:21:45;;;;;;;0.43;0.40;;;;;;;;;;4970333;28;20014;-69
2023/12/24 09:24:10;;;;;;;0.47;0.47;;;;;;;;;;4971234;28;20141;-69
2023/12/24 09:26:35;;;;;;;0.57;0.50;;;;;;;;;;4971624;28;20027;-69
2023/12/24 09:29:01;;;;;;;0.30;0.30;;;;;;;;;;4971431;28;20072;-69
2023/12/24 09:31:26;;;;;;;0.52;0.40;;;;;;;;;;4965405;28;20011;-69
2023/12/24 09:33:51;;;;;;;0.65;0.40;;;;;;;;;;4967020;28;20022;-68
2023/12/24 09:36:16;;;;;;;0.40;0.40;;;;;;;;;;4970428;28;20018;-67
2023/12/24 09:38:42;;;;;;;0.63;0.40;;;;;;;;;;4970430;28;20042;-69
2023/12/24 09:41:07;;;;;;;0.47;0.35;;;;;;;;;;4964900;28;20438;-68
2023/12/24 09:43:33;;;;;;;0.40;0.40;;;;;;;;;;4965523;28;20041;-68
2023/12/24 09:45:59;;;;;;;0.82;0.40;;;;;;;;;;4967461;28;20023;-69
2023/12/24 09:48:24;;;;;;;0.80;0.70;;;;;;;;;;4984243;28;20470;-69
2023/12/24 09:50:49;;;;;;;1.20;0.50;;;;;;;;;;4971156;28;20284;-67
2023/12/24 09:53:15;;;;;;;0.60;0.35;;;;;;;;;;4969637;28;20033;-68
2023/12/24 09:55:40;;;;;;;0.60;0.40;;;;;;;;;;4986337;28;20030;-70
2023/12/24 09:58:05;;;;;;;0.40;0.40;;;;;;;;;;4962477;28;20022;-69
2023/12/24 10:00:30;;;;;;;0.40;0.40;;;;;;;;;;4970302;28;20025;-68
2023/12/24 10:02:56;;;;;;;1.17;0.70;;;;;;;;;;4968765;28;20117;-67
2023/12/24 10:05:21;;;;;;;2.30;0.50;;;;;;;;;;4970493;28;20117;-69
2023/12/24 10:07:46;;;;;;;0.70;0.40;;;;;;;;;;4972007;28;20014;-70
2023/12/24 10:10:13;;;;;;;1.55;0.60;;;;;;;;;;4970674;28;20026;-67
2023/12/24 10:12:38;;;;;;;1.77;0.70;;;;;;;;;;4963411;28;20090;-67
2023/12/24 10:15:04;;;;;;;1.95;0.60;;;;;;;;;;4971223;28;20106;-68
2023/12/24 10:17:30;;;;;;;0.40;0.40;;;;;;;;;;4966967;28;20014;-69
2023/12/24 10:19:56;;;;;;;1.00;0.52;;;;;;;;;;4971117;28;20046;-69
2023/12/24 10:22:23;;;;;;;1.00;0.50;;;;;;;;;;4965815;28;20055;-70
2023/12/24 10:24:49;;;;;;;0.75;0.50;;;;;;;;;;4970501;28;20017;-70
2023/12/24 10:27:15;;;;;;;2.00;0.50;;;;;;;;;;4967623;28;20022;-70
2023/12/24 10:29:41;;;;;;;1.05;0.65;;;;;;;;;;4970769;28;20062;-68
2023/12/24 10:32:09;;;;;;;0.80;0.50;;;;;;;;;;4971023;28;20433;-69
2023/12/24 10:34:35;;;;;;;0.95;0.60;;;;;;;;;;4969354;28;20375;-68
2023/12/24 10:37:26;;;;;;;0.77;0.30;;;;;;;;;;4967317;28;20482;-70
2023/12/24 10:39:52;;;;;;;1.40;0.52;;;;;;;;;;4968188;28;20510;-69
2023/12/24 10:42:17;;;;;;;1.70;0.65;;;;;;;;;;4969016;28;20018;-68
2023/12/24 10:44:42;;;;;;;0.98;0.50;;;;;;;;;;4967289;28;20517;-68
2023/12/24 10:47:07;;;;;;;0.38;0.38;;;;;;;;;;4970097;28;20514;-69
2023/12/24 10:49:33;;;;;;;0.63;0.50;;;;;;;;;;4968607;28;20027;-69
2023/12/24 10:51:59;;;;;;;0.68;0.40;;;;;;;;;;4970182;28;20023;-68
2023/12/24 10:54:25;;;;;;;0.40;0.40;;;;;;;;;;4968545;28;20019;-71
2023/12/24 10:56:50;;;;;;;0.40;0.40;;;;;;;;;;4969518;28;20015;-66
2023/12/24 10:59:51;;;;;;;0.38;0.38;;;;;;;;;;4968835;28;20026;-67
2023/12/24 11:02:16;;;;;;;0.38;0.38;;;;;;;;;;4921182;29;20567;-69
2023/12/24 11:04:44;;;;;;;1.88;0.38;;;;;;;;;;4956464;28;20046;-69
2023/12/24 11:07:09;;;;;;;0.33;0.30;;;;;;;;;;4971943;28;20419;-68
2023/12/24 11:09:35;;;;;;;0.32;0.32;;;;;;;;;;4970324;28;20478;-69
2023/12/24 11:12:00;;;;;;;0.30;0.30;;;;;;;;;;4970103;28;20022;-69
2023/12/24 11:14:41;;;;;;;0.30;0.30;;;;;;;;;;4972098;28;20670;-70
2023/12/24 11:17:10;;;;;;;0.65;0.60;;;;;;;;;;4974056;28;20347;-70
2023/12/24 11:19:37;;;;;;;1.20;0.50;;;;;;;;;;4974396;28;20015;-69
2023/12/24 11:22:09;;;;;;;1.77;0.50;;;;;;;;;;4974328;28;20022;-70
2023/12/24 11:24:41;;;;;;;0.68;0.43;;;;;;;;;;4974354;28;20463;-70
2023/12/24 11:27:08;;;;;;;0.45;0.45;;;;;;;;;;4973404;28;20022;-68
2023/12/24 11:29:49;;;;;;;2.97;0.50;;;;;;;;;;4974287;28;20019;-70
2023/12/24 11:32:26;;;;;;;0.52;0.50;;;;;;;;;;4966700;28;20014;-69
2023/12/24 11:34:58;;;;;;;1.00;0.50;;;;;;;;;;4972071;28;20027;-68
2023/12/24 11:37:26;;;;;;;0.57;0.43;;;;;;;;;;4973503;28;20011;-70
2023/12/24 11:39:58;;;;;;;1.05;0.60;;;;;;;;;;4973500;28;20019;-70
2023/12/24 11:42:23;;;;;;;0.40;0.40;;;;;;;;;;4973798;28;20065;-70
2023/12/24 11:44:54;;;;;;;0.35;0.30;;;;;;;;;;4973548;28;20039;-70
2023/12/24 11:47:19;;;;;;;0.40;0.40;;;;;;;;;;4978366;28;20073;-68
2023/12/24 11:49:46;;;;;;;0.40;0.40;;;;;;;;;;4973118;28;20030;-69
2023/12/24 11:52:12;;;;;;;0.40;0.40;;;;;;;;;;4973412;28;20010;-70
2023/12/24 11:54:37;;;;;;;0.60;0.40;;;;;;;;;;4973898;28;20018;-70
2023/12/24 11:57:02;;;;;;;0.40;0.40;;;;;;;;;;4972817;28;20054;-70
2023/12/24 11:59:27;;;;;;;0.40;0.40;;;;;;;;;;4973476;28;20438;-69
2023/12/24 12:02:02;;;;;;;0.52;0.40;;;;;;;;;;4973455;28;20056;-70
2023/12/24 12:04:27;;;;;;;0.30;0.30;;;;;;;;;;4972917;28;20517;-70
2023/12/24 12:06:52;;;;;;;0.30;0.30;;;;;;;;;;4978000;28;20157;-69
2023/12/24 12:09:19;;;;;;;0.43;0.40;;;;;;;;;;4973271;28;20018;-69
2023/12/24 12:11:46;;;;;;;0.30;0.30;;;;;;;;;;4973442;28;20003;-67
2023/12/24 12:14:11;;;;;;;0.32;0.32;;;;;;;;;;4973591;28;20021;-69
2023/12/24 12:16:36;;;;;;;0.75;0.50;;;;;;;;;;4973222;28;20011;-67
2023/12/24 12:19:02;;;;;;;0.60;0.40;;;;;;;;;;4973298;28;20026;-69
2023/12/24 12:21:27;;;;;;;1.00;0.40;;;;;;;;;;4973319;28;20025;-70
2023/12/24 12:23:52;;;;;;;0.30;0.30;;;;;;;;;;4973114;28;20014;-69
2023/12/24 12:26:17;;;;;;;0.63;0.40;;;;;;;;;;4972225;28;20011;-70
2023/12/24 12:28:42;;;;;;;0.82;0.47;;;;;;;;;;4972978;28;20017;-68
2023/12/24 12:31:08;;;;;;;0.35;0.35;;;;;;;;;;4973202;28;20098;-72
2023/12/24 12:33:33;;;;;;;0.50;0.47;;;;;;;;;;4972659;28;20046;-69
2023/12/24 12:35:58;;;;;;;0.38;0.38;;;;;;;;;;4972776;28;20015;-70
2023/12/24 12:38:23;;;;;;;0.50;0.50;;;;;;;;;;4972519;28;20011;-69
2023/12/24 12:40:50;;;;;;;0.75;0.50;;;;;;;;;;4972723;28;20023;-69
2023/12/24 12:43:16;;;;;;;0.65;0.45;;;;;;;;;;4972857;28;20023;-69
2023/12/24 12:45:41;;;;;;;0.30;0.30;;;;;;;;;;4972832;28;20097;-68
2023/12/24 12:48:06;;;;;;;0.43;0.40;;;;;;;;;;4976922;28;20019;-69
2023/12/24 12:50:32;;;;;;;0.95;0.50;;;;;;;;;;4972742;28;20057;-70
2023/12/24 12:52:58;;;;;;;0.55;0.43;;;;;;;;;;4972559;28;20027;-70
2023/12/24 12:55:23;;;;;;;0.57;0.40;;;;;;;;;;4972578;28;20011;-70
2023/12/24 12:57:48;;;;;;;0.52;0.40;;;;;;;;;;4972286;28;20435;-70
2023/12/24 13:00:18;;;;;;;0.32;0.32;;;;;;;;;;4973133;28;20031;-71
2023/12/24 13:02:43;;;;;;;0.50;0.40;;;;;;;;;;4987609;28;20479;-68
2023/12/24 13:05:24;;;;;;;0.60;0.50;;;;;;;;;;4972067;28;20121;-71
2023/12/24 13:07:49;;;;;;;1.15;0.47;;;;;;;;;;4976631;28;20042;-71
2023/12/24 13:10:31;;;;;;;0.52;0.50;;;;;;;;;;4972439;28;20065;-68
2023/12/24 13:13:06;;;;;;;1.08;0.40;;;;;;;;;;4972483;28;20022;-68
2023/12/24 13:15:32;;;;;;;0.40;0.40;;;;;;;;;;4972365;28;20023;-69
2023/12/24 13:18:14;;;;;;;0.82;0.40;;;;;;;;;;4970475;28;20025;-71
2023/12/24 13:20:40;;;;;;;0.75;0.52;;;;;;;;;;4972004;28;20162;-69
2023/12/24 13:23:08;;;;;;;0.40;0.40;;;;;;;;;;4972063;28;20449;-70
2023/12/24 13:25:33;;;;;;;0.40;0.40;;;;;;;;;;4972153;28;20105;-70
2023/12/24 13:27:58;;;;;;;0.40;0.40;;;;;;;;;;4971602;28;20047;-68
2023/12/24 13:30:23;;;;;;;0.40;0.40;;;;;;;;;;4971700;28;20025;-71
2023/12/24 13:32:48;;;;;;;0.40;0.40;;;;;;;;;;4971442;28;20023;-69
2023/12/24 13:35:14;;;;;;;0.57;0.50;;;;;;;;;;4971136;28;20619;-70
2023/12/24 13:37:39;;;;;;;0.47;0.47;;;;;;;;;;4970705;28;20023;-69
2023/12/24 13:40:06;;;;;;;1.05;0.45;;;;;;;;;;4971902;28;20085;-70
2023/12/24 13:42:31;;;;;;;0.50;0.50;;;;;;;;;;4971828;28;20106;-68
2023/12/24 13:44:56;;;;;;;0.47;0.40;;;;;;;;;;4986879;28;20058;-69
2023/12/24 13:47:21;;;;;;;0.52;0.50;;;;;;;;;;4974946;28;20114;-70
2023/12/24 13:49:46;;;;;;;0.95;0.40;;;;;;;;;;4970654;28;20034;-69
2023/12/24 13:52:12;;;;;;;0.30;0.30;;;;;;;;;;4971481;28;20441;-70
2023/12/24 13:54:37;;;;;;;0.88;0.50;;;;;;;;;;4971195;28;20030;-71
2023/12/24 13:57:03;;;;;;;1.02;0.47;;;;;;;;;;4970550;28;20058;-68
2023/12/24 13:59:28;;;;;;;0.85;0.40;;;;;;;;;;4971170;28;20026;-70
2023/12/24 14:01:53;;;;;;;0.88;0.60;;;;;;;;;;4970566;28;20546;-70
2023/12/24 14:04:19;;;;;;;0.55;0.40;;;;;;;;;;4970701;28;20149;-70
2023/12/24 14:06:44;;;;;;;0.73;0.40;;;;;;;;;;4975404;28;20033;-70
2023/12/24 14:09:09;;;;;;;0.30;0.30;;;;;;;;;;4970631;28;20026;-69
2023/12/24 14:11:35;;;;;;;0.88;0.40;;;;;;;;;;4970916;28;20101;-70
2023/12/24 14:14:01;;;;;;;0.55;0.40;;;;;;;;;;4970208;28;20553;-70
2023/12/24 14:16:26;;;;;;;0.40;0.40;;;;;;;;;;4970419;28;20027;-68
2023/12/24 14:18:53;;;;;;;1.38;0.60;;;;;;;;;;4971021;28;20023;-70
2023/12/24 14:21:19;;;;;;;1.25;0.60;;;;;;;;;;4970545;28;20443;-70
2023/12/24 14:23:44;;;;;;;1.98;0.40;;;;;;;;;;4970868;28;20058;-70
2023/12/24 14:26:09;;;;;;;0.60;0.50;;;;;;;;;;4970498;28;20023;-70
2023/12/24 14:28:34;;;;;;;0.60;0.40;;;;;;;;;;4970291;28;20106;-70
2023/12/24 14:31:00;;;;;;;0.77;0.50;;;;;;;;;;4970110;28;20019;-69
2023/12/24 14:33:25;;;;;;;0.82;0.50;;;;;;;;;;4969965;28;20025;-71
2023/12/24 14:35:50;;;;;;;0.63;0.43;;;;;;;;;;4969706;28;20022;-70